createdAt,value
2022-11-05T00:02:18.673Z,32.97
2022-11-05T00:05:04.044Z,33.47
2022-11-05T00:07:58.934Z,33.53
2022-11-05T00:10:28.656Z,34.40
2022-11-05T00:13:16.200Z,34.10
2022-11-05T00:16:01.116Z,33.63
2022-11-05T00:18:27.568Z,31.87
2022-11-05T00:20:54.060Z,31.47
2022-11-05T00:23:38.948Z,32.10
2022-11-05T00:26:08.016Z,34.53
2022-11-05T00:28:35.627Z,33.57
2022-11-05T00:31:05.254Z,33.50
2022-11-05T00:33:32.341Z,32.47
2022-11-05T00:35:58.942Z,33.20
2022-11-05T00:38:25.417Z,32.33
2022-11-05T00:40:51.840Z,30.17
2022-11-05T00:43:41.565Z,30.37
2022-11-05T00:46:08.015Z,29.43
2022-11-05T00:48:52.873Z,29.83
2022-11-05T00:51:19.571Z,29.83
2022-11-05T00:53:45.985Z,30.30
2022-11-05T00:56:12.435Z,31.03
2022-11-05T00:58:38.875Z,30.77
2022-11-05T01:01:05.922Z,31.33
2022-11-05T01:03:35.666Z,30.93
2022-11-05T01:06:14.011Z,31.07
2022-11-05T01:08:42.186Z,31.00
2022-11-05T01:11:11.826Z,31.00
2022-11-05T01:13:39.513Z,31.17
2022-11-05T01:16:10.063Z,30.10
2022-11-05T01:18:38.592Z,30.27
2022-11-05T01:21:13.523Z,30.93
2022-11-05T01:23:40.127Z,31.13
2022-11-05T01:26:06.555Z,32.60
2022-11-05T01:28:33.075Z,31.60
2022-11-05T01:30:59.623Z,32.37
2022-11-05T01:33:26.094Z,35.00
2022-11-05T01:35:53.456Z,36.23
2022-11-05T01:38:19.912Z,36.27
2022-11-05T01:40:46.804Z,35.27
2022-11-05T01:43:18.895Z,33.40
2022-11-05T01:45:49.903Z,31.93
2022-11-05T01:48:42.741Z,30.10
2022-11-05T01:51:14.204Z,29.17
2022-11-05T01:54:06.630Z,28.83
2022-11-05T01:56:40.990Z,28.83
2022-11-05T01:59:14.717Z,28.17
2022-11-05T02:01:41.226Z,28.20
2022-11-05T02:04:11.559Z,27.93
2022-11-05T02:06:46.364Z,27.53
2022-11-05T02:09:21.597Z,27.73
2022-11-05T02:11:49.686Z,27.43
2022-11-05T02:14:16.147Z,27.27
2022-11-05T02:16:55.886Z,27.47
2022-11-05T02:19:43.701Z,27.30
2022-11-05T02:22:31.957Z,27.37
2022-11-05T02:25:35.979Z,27.27
2022-11-05T02:28:23.024Z,27.17
2022-11-05T02:31:40.682Z,27.00
2022-11-05T02:34:35.476Z,27.20
2022-11-05T02:37:44.174Z,27.47
2022-11-05T02:40:41.397Z,27.33
2022-11-05T02:43:16.560Z,27.13
2022-11-05T02:45:57.487Z,27.70
2022-11-05T02:48:34.682Z,27.40
2022-11-05T02:51:23.925Z,27.60
2022-11-05T02:54:02.309Z,27.70
2022-11-05T02:56:33.822Z,27.80
2022-11-05T02:59:00.274Z,28.27
2022-11-05T03:01:26.840Z,28.03
2022-11-05T03:04:06.984Z,28.03
2022-11-05T03:07:08.326Z,27.90
2022-11-05T03:09:49.504Z,27.90
2022-11-05T03:12:39.302Z,27.60
2022-11-05T03:15:08.980Z,28.03
2022-11-05T03:17:46.728Z,28.27
2022-11-05T03:20:16.210Z,27.97
2022-11-05T03:23:04.745Z,28.33
2022-11-05T03:25:36.742Z,28.47
2022-11-05T03:28:06.139Z,28.43
2022-11-05T03:30:35.706Z,28.33
2022-11-05T03:33:08.965Z,28.77
2022-11-05T03:35:38.853Z,28.47
2022-11-05T03:38:27.942Z,28.40
2022-11-05T03:40:58.351Z,28.73
2022-11-05T03:43:29.704Z,28.40
2022-11-05T03:46:09.867Z,28.77
2022-11-05T03:48:41.388Z,28.57
2022-11-05T03:51:27.616Z,28.40
2022-11-05T03:53:59.668Z,28.50
2022-11-05T03:56:41.534Z,28.53
2022-11-05T03:59:10.297Z,28.07
2022-11-05T04:01:38.670Z,28.77
2022-11-05T04:04:06.593Z,28.43
2022-11-05T04:06:51.376Z,28.27
2022-11-05T04:09:36.415Z,28.00
2022-11-05T04:12:21.121Z,27.87
2022-11-05T04:14:47.599Z,27.77
2022-11-05T04:17:14.212Z,27.70
2022-11-05T04:20:01.173Z,27.70
2022-11-05T04:22:48.989Z,27.70
2022-11-05T04:25:16.712Z,27.57
2022-11-05T04:27:44.035Z,27.47
2022-11-05T04:30:20.373Z,27.83
2022-11-05T04:33:00.657Z,28.00
2022-11-05T04:35:29.801Z,27.50
2022-11-05T04:37:56.257Z,27.57
2022-11-05T04:40:22.847Z,28.00
2022-11-05T04:42:49.318Z,27.40
2022-11-05T04:45:15.859Z,1.70
2022-11-05T04:47:42.395Z,1.70
2022-11-05T04:50:10.598Z,1.40
2022-11-05T04:52:37.027Z,1.70
2022-11-05T04:55:04.062Z,1.53
2022-11-05T04:57:30.522Z,1.53
2022-11-05T04:59:57.049Z,1.70
2022-11-05T05:02:23.468Z,1.90
2022-11-05T05:04:49.918Z,1.80
2022-11-05T05:07:20.219Z,1.40
2022-11-05T05:09:46.627Z,26.20
2022-11-05T05:12:13.087Z,25.97
2022-11-05T05:14:39.519Z,26.20
2022-11-05T05:17:06.057Z,26.67
2022-11-05T05:19:52.447Z,26.53
2022-11-05T05:22:18.880Z,26.40
2022-11-05T05:24:49.936Z,26.70
2022-11-05T05:27:18.964Z,26.30
2022-11-05T05:29:45.397Z,26.80
2022-11-05T05:32:11.815Z,27.00
2022-11-05T05:34:38.241Z,26.70
2022-11-05T05:37:04.685Z,26.70
2022-11-05T05:39:31.144Z,27.20
2022-11-05T05:41:57.554Z,27.20
2022-11-05T05:44:23.989Z,26.87
2022-11-05T05:46:50.445Z,26.83
2022-11-05T05:49:16.855Z,26.97
2022-11-05T05:51:43.309Z,27.20
2022-11-05T05:54:10.999Z,26.60
2022-11-05T05:56:37.457Z,27.10
2022-11-05T05:59:05.349Z,26.50
2022-11-05T06:01:31.896Z,26.83
2022-11-05T06:03:58.384Z,26.93
2022-11-05T06:06:24.807Z,26.67
2022-11-05T06:08:51.236Z,26.87
2022-11-05T06:11:17.725Z,27.10
2022-11-05T06:13:44.272Z,27.13
2022-11-05T06:16:11.257Z,26.83
2022-11-05T06:18:38.021Z,27.20
2022-11-05T06:21:06.973Z,27.07
2022-11-05T06:23:35.034Z,26.60
2022-11-05T06:26:02.558Z,26.30
2022-11-05T06:28:29.651Z,26.50
2022-11-05T06:30:57.592Z,26.53
2022-11-05T06:33:24.161Z,26.33
2022-11-05T06:35:50.715Z,26.10
2022-11-05T06:38:17.267Z,26.67
2022-11-05T06:40:43.703Z,26.50
2022-11-05T06:43:10.481Z,26.47
2022-11-05T06:45:37.228Z,27.13
2022-11-05T06:48:03.793Z,26.83
2022-11-05T06:50:30.277Z,26.53
2022-11-05T06:52:59.483Z,26.80
2022-11-05T06:55:27.995Z,26.53
2022-11-05T06:57:54.682Z,26.77
2022-11-05T07:00:21.325Z,26.70
2022-11-05T07:02:47.926Z,26.20
2022-11-05T07:05:15.516Z,26.50
2022-11-05T07:07:43.983Z,26.67
2022-11-05T07:10:13.599Z,26.50
2022-11-05T07:12:40.055Z,26.40
2022-11-05T07:15:07.388Z,26.27
2022-11-05T07:17:33.817Z,26.70
2022-11-05T07:20:00.235Z,26.53
2022-11-05T07:22:26.681Z,26.63
2022-11-05T07:24:53.103Z,26.73
2022-11-05T07:27:19.539Z,26.10
2022-11-05T07:29:45.964Z,26.90
2022-11-05T07:32:12.413Z,26.97
2022-11-05T07:34:38.834Z,26.93
2022-11-05T07:37:05.293Z,26.83
2022-11-05T07:39:31.806Z,27.13
2022-11-05T07:41:58.224Z,26.90
2022-11-05T07:44:24.696Z,12.43
2022-11-05T07:46:51.283Z,2.77
2022-11-05T07:49:18.484Z,2.70
2022-11-05T07:51:45.128Z,2.57
2022-11-05T07:54:11.549Z,2.53
2022-11-05T07:56:38.020Z,2.20
2022-11-05T07:59:04.548Z,10.57
2022-11-05T08:03:57.801Z,2.30
2022-11-05T08:06:24.250Z,2.08
2022-11-05T08:08:50.684Z,1.98
2022-11-05T08:11:18.863Z,2.75
2022-11-05T08:13:45.284Z,3.50
2022-11-05T08:16:11.760Z,3.15
2022-11-05T08:18:38.190Z,3.90
2022-11-05T08:21:05.817Z,3.33
2022-11-05T08:23:32.980Z,3.60
2022-11-05T08:26:02.759Z,3.17
2022-11-05T08:28:29.251Z,4.40
2022-11-05T08:30:57.225Z,3.78
2022-11-05T08:33:25.107Z,3.70
2022-11-05T08:35:51.827Z,3.25
2022-11-05T08:38:19.544Z,3.05
2022-11-05T08:40:54.595Z,3.80
2022-11-05T08:43:21.496Z,3.10
2022-11-05T08:45:48.066Z,3.42
2022-11-05T08:48:16.476Z,2.60
2022-11-05T08:50:43.948Z,3.00
2022-11-05T08:53:11.274Z,3.00
2022-11-05T08:55:38.567Z,2.90
2022-11-05T08:58:07.798Z,2.78
2022-11-05T09:00:36.762Z,2.80
2022-11-05T09:03:05.701Z,2.75
2022-11-05T09:05:38.058Z,2.67
2022-11-05T09:08:22.311Z,2.78
2022-11-05T09:10:49.985Z,2.50
2022-11-05T09:13:19.674Z,2.40
2022-11-05T09:15:50.779Z,2.60
2022-11-05T09:18:19.373Z,2.38
2022-11-05T09:20:46.569Z,2.75
2022-11-05T09:23:15.482Z,2.20
2022-11-05T09:25:42.675Z,2.75
2022-11-05T09:28:16.139Z,2.78
2022-11-05T09:30:45.045Z,2.75
2022-11-05T09:33:12.007Z,2.72
2022-11-05T09:35:42.282Z,2.70
2022-11-05T09:38:08.977Z,2.75
2022-11-05T09:41:02.559Z,2.58
2022-11-05T09:44:11.716Z,2.75
2022-11-05T09:46:45.781Z,2.88
2022-11-05T09:49:41.494Z,2.50
2022-11-05T09:52:17.414Z,2.42
2022-11-05T09:54:44.043Z,2.85
2022-11-05T09:57:16.375Z,2.50
2022-11-05T09:59:52.057Z,2.40
2022-11-05T10:02:22.900Z,2.50
2022-11-05T10:04:53.904Z,2.40
2022-11-05T10:07:24.486Z,2.10
2022-11-05T10:10:01.686Z,2.72
2022-11-05T10:12:45.635Z,2.80
2022-11-05T10:15:17.046Z,2.83
2022-11-05T10:17:50.953Z,2.53
2022-11-05T10:20:24.554Z,2.30
2022-11-05T10:22:56.792Z,2.63
2022-11-05T10:25:27.456Z,2.90
2022-11-05T10:27:55.667Z,2.65
2022-11-05T10:30:22.490Z,2.58
2022-11-05T10:32:52.455Z,2.45
2022-11-05T10:35:22.674Z,2.35
2022-11-05T10:37:50.468Z,2.60
2022-11-05T10:40:32.575Z,2.60
2022-11-05T10:43:21.741Z,2.50
2022-11-05T10:46:06.573Z,2.53
2022-11-05T10:49:05.402Z,2.88
2022-11-05T10:51:32.499Z,2.53
2022-11-05T10:54:05.346Z,2.80
2022-11-05T10:56:38.024Z,3.30
2022-11-05T10:59:11.913Z,2.90
2022-11-05T11:01:38.942Z,2.85
2022-11-05T11:04:20.400Z,2.92
2022-11-05T11:06:52.665Z,2.97
2022-11-05T11:09:31.721Z,2.60
2022-11-05T11:12:30.872Z,2.40
2022-11-05T11:15:02.424Z,2.90
2022-11-05T11:17:31.038Z,2.65
2022-11-05T11:20:32.315Z,2.53
2022-11-05T11:23:25.063Z,2.95
2022-11-05T11:25:58.019Z,3.15
2022-11-05T11:28:29.650Z,2.90
2022-11-05T11:31:14.962Z,2.70
2022-11-05T11:33:46.468Z,3.55
2022-11-05T11:36:13.994Z,3.22
2022-11-05T11:38:41.333Z,2.83
2022-11-05T11:41:17.074Z,3.33
2022-11-05T11:43:45.026Z,3.65
2022-11-05T11:46:19.959Z,2.80
2022-11-05T11:48:48.160Z,3.25
2022-11-05T11:51:21.887Z,3.17
2022-11-05T11:53:49.663Z,3.05
2022-11-05T11:56:19.411Z,3.42
2022-11-05T11:58:48.904Z,3.15
2022-11-05T12:01:34.209Z,2.70
2022-11-05T12:04:06.476Z,3.00
2022-11-05T12:06:43.679Z,3.50
2022-11-05T12:09:22.193Z,2.63
2022-11-05T12:11:54.855Z,2.53
2022-11-05T12:14:42.335Z,2.90
2022-11-05T12:17:34.598Z,3.50
2022-11-05T12:20:25.488Z,2.70
2022-11-05T12:23:15.655Z,3.13
2022-11-05T12:26:06.473Z,3.05
2022-11-05T12:29:18.582Z,2.80
2022-11-05T12:32:22.610Z,2.88
2022-11-05T12:35:01.631Z,2.60
2022-11-05T12:37:55.251Z,2.78
2022-11-05T12:40:40.323Z,2.70
2022-11-05T12:43:36.170Z,2.50
2022-11-05T12:46:19.185Z,2.53
2022-11-05T12:49:31.025Z,2.80
2022-11-05T12:52:16.183Z,2.80
2022-11-05T12:55:03.100Z,2.38
2022-11-05T12:57:32.665Z,2.80
2022-11-05T13:00:22.294Z,2.55
2022-11-05T13:03:20.510Z,2.50
2022-11-05T13:05:54.996Z,3.28
2022-11-05T13:08:39.824Z,2.53
2022-11-05T13:11:11.665Z,2.88
2022-11-05T13:14:05.109Z,3.30
2022-11-05T13:16:40.379Z,2.42
2022-11-05T13:19:19.580Z,2.97
2022-11-05T13:21:52.087Z,2.83
2022-11-05T13:24:24.735Z,2.70
2022-11-05T13:27:02.877Z,2.70
2022-11-05T13:29:44.257Z,2.80
2022-11-05T13:32:38.522Z,2.40
2022-11-05T13:35:14.176Z,2.90
2022-11-05T13:38:02.816Z,2.90
2022-11-05T13:41:06.665Z,2.53
2022-11-05T13:43:45.217Z,2.55
2022-11-05T13:46:28.312Z,2.55
2022-11-05T13:49:00.564Z,3.00
2022-11-05T13:51:38.643Z,2.50
2022-11-05T13:54:20.632Z,2.70
2022-11-05T13:57:24.377Z,2.65
2022-11-05T14:00:12.801Z,2.42
2022-11-05T14:02:43.632Z,2.60
2022-11-05T14:05:30.531Z,2.30
2022-11-05T14:08:00.289Z,2.78
2022-11-05T14:10:38.828Z,2.97
2022-11-05T14:13:19.462Z,2.75
2022-11-05T14:16:04.440Z,3.13
2022-11-05T14:18:37.123Z,2.92
2022-11-05T14:21:06.439Z,3.10
2022-11-05T14:23:41.184Z,3.35
2022-11-05T14:26:25.486Z,2.65
2022-11-05T14:29:20.830Z,3.80
2022-11-05T14:32:07.872Z,3.40
2022-11-05T14:34:43.930Z,3.40
2022-11-05T14:37:13.381Z,3.35
2022-11-05T14:39:40.396Z,2.97
2022-11-05T14:42:12.734Z,2.83
2022-11-05T14:44:58.811Z,3.08
2022-11-05T14:47:28.662Z,3.40
2022-11-05T14:50:11.635Z,3.28
2022-11-05T14:52:40.119Z,3.30
2022-11-05T14:55:22.793Z,3.65
2022-11-05T14:57:51.944Z,3.53
2022-11-05T15:00:36.600Z,3.13
2022-11-05T15:03:24.967Z,3.13
2022-11-05T15:05:52.649Z,3.45
2022-11-05T15:08:35.292Z,3.40
2022-11-05T15:11:12.579Z,3.00
2022-11-05T15:14:05.057Z,3.80
2022-11-05T15:16:37.080Z,3.42
2022-11-05T15:19:05.114Z,3.47
2022-11-05T15:21:35.379Z,3.08
2022-11-05T15:24:03.516Z,3.60
2022-11-05T15:26:42.072Z,3.45
2022-11-05T15:29:18.793Z,3.13
2022-11-05T15:31:46.011Z,3.20
2022-11-05T15:34:18.120Z,3.35
2022-11-05T15:36:54.078Z,3.03
2022-11-05T15:39:29.453Z,2.97
2022-11-05T15:41:56.635Z,3.38
2022-11-05T15:44:26.083Z,2.90
2022-11-05T15:47:36.677Z,3.33
2022-11-05T15:50:14.773Z,2.92
2022-11-05T15:52:50.737Z,3.00
2022-11-05T15:55:25.809Z,3.25
2022-11-05T15:58:00.728Z,2.90
2022-11-05T16:00:30.427Z,3.08
2022-11-05T16:03:15.076Z,2.67
2022-11-05T16:05:45.551Z,3.10
2022-11-05T16:08:18.574Z,3.33
2022-11-05T16:10:51.864Z,2.90
2022-11-05T16:13:30.647Z,3.00
2022-11-05T16:16:19.164Z,2.83
2022-11-05T16:18:45.643Z,3.03
2022-11-05T16:21:15.272Z,3.15
2022-11-05T16:23:54.208Z,3.50
2022-11-05T16:27:01.188Z,2.92
2022-11-05T16:29:41.146Z,3.00
2022-11-05T16:32:17.149Z,3.33
2022-11-05T16:35:23.262Z,3.10
2022-11-05T16:37:52.438Z,3.40
2022-11-05T16:40:24.797Z,3.78
2022-11-05T16:42:53.813Z,3.38
2022-11-05T16:45:23.523Z,3.20
2022-11-05T16:47:50.405Z,3.03
2022-11-05T16:50:18.972Z,2.95
2022-11-05T16:52:46.296Z,4.43
2022-11-05T16:55:14.432Z,3.85
2022-11-05T16:57:43.863Z,3.28
2022-11-05T17:00:15.114Z,3.33
2022-11-05T17:02:41.777Z,2.88
2022-11-05T17:05:24.098Z,3.25
2022-11-05T17:07:50.663Z,3.10
2022-11-05T17:10:17.597Z,3.03
2022-11-05T17:12:44.128Z,3.22
2022-11-05T17:15:22.989Z,3.78
2022-11-05T17:17:49.797Z,3.28
2022-11-05T17:20:26.708Z,3.47
2022-11-05T17:22:53.567Z,3.20
2022-11-05T17:25:20.084Z,3.15
2022-11-05T17:27:46.571Z,3.13
2022-11-05T17:30:13.803Z,3.28
2022-11-05T17:32:40.316Z,3.20
2022-11-05T17:35:07.662Z,3.40
2022-11-05T17:37:34.339Z,4.10
2022-11-05T17:40:01.508Z,3.35
2022-11-05T17:42:28.035Z,3.40
2022-11-05T17:44:54.632Z,3.60
2022-11-05T17:47:21.084Z,3.85
2022-11-05T17:49:47.787Z,3.83
2022-11-05T17:52:14.289Z,3.53
2022-11-05T17:54:40.764Z,2.83
2022-11-05T17:57:07.406Z,3.33
2022-11-05T17:59:34.037Z,3.25
2022-11-05T18:02:00.753Z,3.17
2022-11-05T18:04:27.343Z,3.40
2022-11-05T18:06:53.942Z,3.30
2022-11-05T18:09:20.445Z,2.80
2022-11-05T18:11:46.944Z,4.05
2022-11-05T18:14:13.397Z,3.00
2022-11-05T18:16:39.875Z,3.60
2022-11-05T18:19:06.532Z,3.20
2022-11-05T18:21:33.070Z,3.00
2022-11-05T18:24:03.623Z,3.63
2022-11-05T18:26:30.076Z,3.63
2022-11-05T18:28:56.545Z,3.70
2022-11-05T18:31:23.062Z,3.28
2022-11-05T18:33:50.672Z,3.20
2022-11-05T18:36:20.099Z,3.80
2022-11-05T18:38:47.221Z,3.37
2022-11-05T18:41:13.744Z,2.97
2022-11-05T18:43:40.236Z,3.25
2022-11-05T18:46:07.795Z,3.30
2022-11-05T18:48:35.028Z,3.20
2022-11-05T18:51:07.180Z,3.10
2022-11-05T18:53:33.614Z,3.40
2022-11-05T18:56:00.100Z,3.45
2022-11-05T18:58:27.051Z,3.53
2022-11-05T19:00:53.482Z,3.38
2022-11-05T19:03:19.944Z,3.50
2022-11-05T19:05:46.420Z,4.00
2022-11-05T19:08:13.256Z,3.15
2022-11-05T19:10:41.034Z,3.55
2022-11-05T19:13:07.491Z,3.88
2022-11-05T19:15:33.938Z,3.55
2022-11-05T19:18:00.432Z,3.60
2022-11-05T19:20:28.053Z,3.27
2022-11-05T19:22:54.575Z,3.65
2022-11-05T19:25:21.041Z,3.57
2022-11-05T19:27:47.491Z,3.40
2022-11-05T19:30:14.039Z,3.43
2022-11-05T19:32:40.580Z,3.33
2022-11-05T19:35:07.539Z,3.33
2022-11-05T19:37:34.140Z,3.33
2022-11-05T19:40:00.632Z,3.83
2022-11-05T19:42:27.202Z,3.30
2022-11-05T19:44:53.648Z,3.70
2022-11-05T19:47:20.126Z,3.37
2022-11-05T19:49:46.586Z,3.43
2022-11-05T19:52:13.068Z,3.28
2022-11-05T19:54:39.614Z,3.67
2022-11-05T19:57:06.499Z,3.53
2022-11-05T19:59:32.977Z,3.43
2022-11-05T20:01:59.595Z,3.63
2022-11-05T20:04:26.168Z,3.27
2022-11-05T20:06:52.632Z,3.03
2022-11-05T20:09:22.080Z,3.13
2022-11-05T20:11:50.686Z,4.63
2022-11-05T20:14:17.446Z,3.67
2022-11-05T20:16:45.807Z,3.20
2022-11-05T20:19:18.659Z,3.30
2022-11-05T20:21:45.335Z,3.43
2022-11-05T20:24:17.481Z,3.42
2022-11-05T20:26:48.759Z,3.30
2022-11-05T20:29:15.241Z,3.40
2022-11-05T20:31:41.701Z,3.50
2022-11-05T20:34:08.954Z,3.33
2022-11-05T20:36:35.382Z,2.73
2022-11-05T20:39:02.953Z,3.10
2022-11-05T20:41:30.728Z,3.42
2022-11-05T20:43:57.283Z,3.40
2022-11-05T20:46:24.007Z,3.47
2022-11-05T20:48:50.495Z,3.17
2022-11-05T20:51:21.842Z,3.50
2022-11-05T20:53:49.102Z,3.33
2022-11-05T20:56:17.601Z,3.43
2022-11-05T20:58:44.149Z,3.30
2022-11-05T21:01:12.970Z,3.40
2022-11-05T21:03:40.086Z,4.03
2022-11-05T21:06:07.683Z,3.80
2022-11-05T21:08:34.712Z,3.70
2022-11-05T21:11:01.837Z,4.00
2022-11-05T21:13:29.050Z,4.17
2022-11-05T21:15:59.071Z,3.87
2022-11-05T21:18:31.040Z,4.13
2022-11-05T21:20:59.803Z,3.70
2022-11-05T21:23:29.087Z,3.83
2022-11-05T21:25:55.854Z,3.63
2022-11-05T21:28:22.645Z,4.07
2022-11-05T21:30:49.224Z,4.00
2022-11-05T21:33:16.986Z,3.70
2022-11-05T21:35:45.927Z,4.00
2022-11-05T21:38:14.675Z,3.70
2022-11-05T21:40:41.775Z,4.30
2022-11-05T21:43:08.832Z,4.20
2022-11-05T21:45:38.477Z,4.03
2022-11-05T21:48:05.238Z,4.20
2022-11-05T21:50:49.982Z,3.90
2022-11-05T21:53:35.969Z,3.90
2022-11-05T21:56:35.150Z,4.00
2022-11-05T21:59:20.577Z,3.90
2022-11-05T22:01:47.306Z,3.80
2022-11-05T22:04:13.866Z,4.20
2022-11-05T22:06:40.333Z,25.40
2022-11-05T22:09:06.786Z,26.27
2022-11-05T22:11:37.196Z,25.87
2022-11-05T22:14:03.676Z,25.60
2022-11-05T22:16:30.123Z,25.80
2022-11-05T22:18:57.603Z,26.17
2022-11-05T22:21:24.061Z,26.17
2022-11-05T22:23:52.204Z,26.00
2022-11-05T22:26:19.267Z,25.23
2022-11-05T22:28:45.728Z,25.53
2022-11-05T22:31:16.967Z,25.30
2022-11-05T22:33:43.643Z,25.10
2022-11-05T22:36:11.024Z,25.20
2022-11-05T22:38:37.674Z,25.20
2022-11-05T22:41:17.415Z,25.07
2022-11-05T22:43:44.813Z,25.70
2022-11-05T22:46:20.389Z,25.87
2022-11-05T22:48:47.138Z,25.50
2022-11-05T22:51:22.970Z,25.33
2022-11-05T22:53:49.792Z,25.33
2022-11-05T22:56:19.310Z,25.10
2022-11-05T22:58:46.624Z,25.10
2022-11-05T23:01:13.723Z,25.30
2022-11-05T23:03:42.159Z,24.83
2022-11-05T23:06:32.276Z,25.37
2022-11-05T23:09:17.530Z,25.67
2022-11-05T23:11:48.185Z,25.80
2022-11-05T23:14:15.195Z,25.73
2022-11-05T23:17:01.013Z,26.23
2022-11-05T23:19:46.543Z,25.57
2022-11-05T23:22:33.796Z,26.07
2022-11-05T23:25:00.356Z,25.87
2022-11-05T23:27:31.586Z,25.90
2022-11-05T23:30:04.325Z,26.10
2022-11-05T23:32:32.296Z,25.40
2022-11-05T23:34:59.459Z,25.73
2022-11-05T23:37:47.109Z,25.17
2022-11-05T23:40:19.914Z,25.50
2022-11-05T23:43:05.660Z,25.90
2022-11-05T23:45:51.723Z,25.87
2022-11-05T23:48:32.263Z,25.40
2022-11-05T23:51:02.075Z,25.60
2022-11-05T23:53:30.215Z,25.47
2022-11-05T23:56:06.246Z,25.43
2022-11-05T23:58:33.076Z,25.40
